Newport News, VA (23601)

6:59 PM EST on January 18, 2018 (GMT -0500)
Courtney Trace | | Change Station
Active Advisory: Special Statement

Elev 39 ft 37.06 °N, 76.45 °W | Updated 31 seconds ago

Clear
Clear
32.4 °F
Feels Like 32 °F
N
2.0
Wind Variable Wind from East

Today
High -- | Low -- °F
--% Chance of Precip.
Yesterday
High -- | Low -- °F
Precip. -- in
Pressure 30.14 in
Visibility 10.0 miles
Clouds Clear
Windchill 32 °F
Dew Point 24 °F
Humidity 73%
Rainfall 0.07 in
Snow Depth Not available.
7:17 AM 5:15 PM
Waxing Crescent, 3% visible
METAR KPHF 182354Z 25010KT 10SM CLR 01/M06 A3014 RMK AO2 SLP207 T00061056 10028 21006 53013
Pressure 30.14 in
Visibility 10.0 miles
Clouds Clear
Windchill 32 °F
Dew Point 24 °F
Humidity 73%
Rainfall 0.07 in
Snow Depth Not available.
7:17 AM 5:15 PM
Waxing Crescent, 3% visible
METAR KPHF 182354Z 25010KT 10SM CLR 01/M06 A3014 RMK AO2 SLP207 T00061056 10028 21006 53013

Get Your Daily Forecast Email!

Thanks for signing up!

Be on the lookout for a verification email in your inbox.

You'll start receiving severe weather alerts in your inbox..

×

10-Day Weather Forecast

Almanac

Astronomy

Jan. 18, 2018 Rise Set
Actual Time
Civil Twilight
Nautical Twilight
Astronomical Twilight
Moon
Length of Visible Light
Length of Day
Tomorrow will be .
, % of the Moon is Illuminated

Today's Extremes

State Highs State Lows

Community

WunderPhotos

Category 6

Welcome to Category 6. This is the collective home for Weather Underground's featured writeups by Dr. Jeff Masters (right), Bob Henson (left), Chris Burt, and other regular contributors.

Nearby

Air Quality

  Air Quality AQ Index Pollutant
Not available.

Snow Depth

Station Depth Elevation

Earthquake Activity

City Distance Mag. Time & Date
Minimum magnitude displayed is 2.5.

Coastal Water Temperatures

Place Temperature

Stations

Nearby Weather Stations

Station Location Temp. Windchill Dew Point Humidity Wind Precip. Elev Updated Type
                   

Watches & Warnings

Special Statement
Issued: 3:45 PM EST Jan. 18, 2018 – National Weather Service

... Icy spots on roads possible again tonight...

Temperatures will quickly drop into the 20s this evening then into
the upper teens to lower 20s after midnight. This will allow any
left over snow and water to refreeze on Road surfaces. Those
traveling should use extra caution, and allow plenty of time to
get to your destination.


44